IBE04MR LEVX-LEMD
Flight info
| Callsign | IBE04MR |
|---|---|
| Flight time | N/A |
| Altitude | 29000 |
| Route | BEDAL DCT GODIV DCT ZMR |
| Aircraft | A320/M-SDE3FGHIRWY/LB1 |
Departure
| Time | 2026-04-15 13:53 |
|---|---|
| Airport | Vigo Airport (LEVX) |
Arrival
| Time | N/A |
|---|---|
| Airport | Adolfo Suárez Madrid–Barajas Airport (LEMD) |
| Time | Latitude | Longitude | Altitude | Speed | Heading |
|---|---|---|---|---|---|
| 2026-04-15 13:21 | 42.22511 | -8.63184 | 843 ft | 0 kts | 282° |
| 2026-04-15 13:44 | 42.22509 | -8.63172 | 831 ft | 2 kts | 281° |
| 2026-04-15 13:44 | 42.22506 | -8.63151 | 840 ft | 2 kts | 284° |
| 2026-04-15 13:45 | 42.22501 | -8.63129 | 832 ft | 2 kts | 288° |
| 2026-04-15 13:45 | 42.22496 | -8.63108 | 836 ft | 2 kts | 297° |
| 2026-04-15 13:45 | 42.22487 | -8.63090 | 836 ft | 2 kts | 344° |
| 2026-04-15 13:47 | 42.22473 | -8.63089 | 831 ft | 0 kts | 13° |
| 2026-04-15 13:48 | 42.22516 | -8.63077 | 840 ft | 9 kts | 11° |
| 2026-04-15 13:48 | 42.22560 | -8.63065 | 837 ft | 4 kts | 11° |
| 2026-04-15 13:48 | 42.22588 | -8.63058 | 843 ft | 10 kts | 11° |
| 2026-04-15 13:48 | 42.22663 | -8.63024 | 836 ft | 9 kts | 39° |
| 2026-04-15 13:49 | 42.22697 | -8.62989 | 838 ft | 3 kts | 38° |
| 2026-04-15 13:49 | 42.22717 | -8.62967 | 838 ft | 7 kts | 41° |
| 2026-04-15 13:49 | 42.22779 | -8.62899 | 843 ft | 17 kts | 39° |
| 2026-04-15 13:49 | 42.22882 | -8.62794 | 844 ft | 18 kts | 29° |
| 2026-04-15 13:50 | 42.23022 | -8.62723 | 845 ft | 25 kts | 16° |
| 2026-04-15 13:50 | 42.23193 | -8.62676 | 846 ft | 27 kts | 11° |
| 2026-04-15 13:50 | 42.23408 | -8.62619 | 835 ft | 35 kts | 12° |
| 2026-04-15 13:50 | 42.23633 | -8.62556 | 841 ft | 32 kts | 10° |
| 2026-04-15 13:51 | 42.23839 | -8.62502 | 833 ft | 28 kts | 12° |
| 2026-04-15 13:51 | 42.24023 | -8.62453 | 841 ft | 26 kts | 11° |
| 2026-04-15 13:51 | 42.24184 | -8.62424 | 844 ft | 21 kts | 345° |
| 2026-04-15 13:51 | 42.24231 | -8.62397 | 844 ft | 6 kts | 154° |
| 2026-04-15 13:52 | 42.24157 | -8.62416 | 844 ft | 31 kts | 191° |
| 2026-04-15 13:52 | 42.23684 | -8.62543 | 839 ft | 102 kts | 191° |
| 2026-04-15 13:52 | 42.22802 | -8.62780 | 887 ft | 150 kts | 191° |
| 2026-04-15 13:52 | 42.21755 | -8.63068 | 1443 ft | 157 kts | 192° |
| 2026-04-15 13:53 | 42.20689 | -8.63368 | 2266 ft | 155 kts | 192° |
| 2026-04-15 13:53 | 42.19641 | -8.63649 | 3012 ft | 152 kts | 193° |
| 2026-04-15 13:53 | 42.18609 | -8.63921 | 3736 ft | 150 kts | 194° |
| 2026-04-15 13:53 | 42.17569 | -8.64205 | 4258 ft | 160 kts | 194° |
| 2026-04-15 13:54 | 42.16399 | -8.64519 | 4569 ft | 182 kts | 194° |
| 2026-04-15 13:54 | 42.15084 | -8.64882 | 4881 ft | 205 kts | 194° |
| 2026-04-15 13:54 | 42.13617 | -8.65268 | 5389 ft | 221 kts | 191° |
| 2026-04-15 13:54 | 42.12080 | -8.64977 | 6158 ft | 234 kts | 154° |
| 2026-04-15 13:55 | 42.10968 | -8.63411 | 6975 ft | 244 kts | 116° |
| 2026-04-15 13:55 | 42.10770 | -8.61140 | 7723 ft | 251 kts | 76° |
| 2026-04-15 13:55 | 42.11574 | -8.59056 | 8462 ft | 255 kts | 48° |
| 2026-04-15 13:55 | 42.12802 | -8.57331 | 9316 ft | 257 kts | 40° |
| 2026-04-15 13:56 | 42.14154 | -8.55719 | 10137 ft | 262 kts | 37° |
| 2026-04-15 13:56 | 42.15550 | -8.54102 | 10878 ft | 267 kts | 37° |
| 2026-04-15 13:56 | 42.16971 | -8.52454 | 11642 ft | 271 kts | 38° |
| 2026-04-15 13:56 | 42.18366 | -8.50721 | 12449 ft | 275 kts | 40° |
| 2026-04-15 13:57 | 42.19749 | -8.48910 | 13242 ft | 279 kts | 40° |
| 2026-04-15 13:57 | 42.21136 | -8.47046 | 14034 ft | 284 kts | 41° |
| 2026-04-15 13:57 | 42.22522 | -8.45091 | 14582 ft | 299 kts | 49° |
| 2026-04-15 13:57 | 42.23450 | -8.42459 | 14837 ft | 327 kts | 79° |
| 2026-04-15 13:58 | 42.23394 | -8.39326 | 15075 ft | 347 kts | 105° |
| 2026-04-15 13:58 | 42.22765 | -8.36075 | 15267 ft | 370 kts | 107° |
| 2026-04-15 13:58 | 42.22059 | -8.32627 | 15427 ft | 393 kts | 108° |
| 2026-04-15 13:58 | 42.21301 | -8.28972 | 15554 ft | 416 kts | 107° |
| 2026-04-15 13:59 | 42.20513 | -8.25138 | 15875 ft | 430 kts | 107° |
| 2026-04-15 13:59 | 42.19719 | -8.21213 | 16451 ft | 437 kts | 107° |
| 2026-04-15 13:59 | 42.18923 | -8.17240 | 17048 ft | 442 kts | 107° |
| 2026-04-15 13:59 | 42.18122 | -8.13215 | 17673 ft | 447 kts | 107° |
| 2026-04-15 14:00 | 42.17313 | -8.09149 | 18307 ft | 452 kts | 107° |
| 2026-04-15 14:00 | 42.16490 | -8.05036 | 18867 ft | 457 kts | 107° |
| 2026-04-15 14:00 | 42.15656 | -8.00890 | 19392 ft | 461 kts | 107° |
| 2026-04-15 14:00 | 42.14812 | -7.96709 | 19950 ft | 464 kts | 107° |
| 2026-04-15 14:01 | 42.13097 | -7.88281 | 21000 ft | 469 kts | 107° |
| 2026-04-15 14:01 | 42.12231 | -7.84026 | 21510 ft | 472 kts | 107° |
| 2026-04-15 14:01 | 42.11361 | -7.79753 | 21993 ft | 475 kts | 107° |
| 2026-04-15 14:02 | 42.10488 | -7.75506 | 22459 ft | 478 kts | 108° |
| 2026-04-15 14:02 | 42.09517 | -7.71221 | 22930 ft | 480 kts | 110° |
| 2026-04-15 14:02 | 42.08439 | -7.66950 | 23387 ft | 483 kts | 111° |
| 2026-04-15 14:02 | 42.07291 | -7.62697 | 23831 ft | 485 kts | 112° |
| 2026-04-15 14:03 | 42.06107 | -7.58431 | 24209 ft | 488 kts | 112° |
| 2026-04-15 14:03 | 42.04919 | -7.54142 | 24580 ft | 490 kts | 112° |
| 2026-04-15 14:03 | 42.03748 | -7.49826 | 24945 ft | 492 kts | 112° |
| 2026-04-15 14:03 | 42.02595 | -7.45479 | 25303 ft | 494 kts | 111° |
| 2026-04-15 14:04 | 42.01450 | -7.41108 | 25625 ft | 497 kts | 111° |
| 2026-04-15 14:04 | 42.00305 | -7.36712 | 25937 ft | 500 kts | 111° |
| 2026-04-15 14:04 | 41.99150 | -7.32292 | 26250 ft | 502 kts | 111° |
| 2026-04-15 14:04 | 41.97984 | -7.27856 | 26540 ft | 504 kts | 111° |
| 2026-04-15 14:05 | 41.96808 | -7.23407 | 26845 ft | 506 kts | 112° |
| 2026-04-15 14:05 | 41.95620 | -7.18945 | 27134 ft | 508 kts | 112° |
| 2026-04-15 14:05 | 41.94422 | -7.14471 | 27394 ft | 510 kts | 112° |
| 2026-04-15 14:05 | 41.93217 | -7.09981 | 27646 ft | 512 kts | 112° |
| 2026-04-15 14:06 | 41.92008 | -7.05483 | 27947 ft | 512 kts | 112° |
| 2026-04-15 14:06 | 41.90800 | -7.00991 | 28299 ft | 511 kts | 112° |
| 2026-04-15 14:06 | 41.89596 | -6.96506 | 28654 ft | 511 kts | 112° |
| 2026-04-15 14:06 | 41.88393 | -6.92029 | 28987 ft | 510 kts | 112° |
| 2026-04-15 14:07 | 41.87190 | -6.87552 | 29336 ft | 510 kts | 113° |
| 2026-04-15 14:07 | 41.85985 | -6.83076 | 29688 ft | 510 kts | 113° |
| 2026-04-15 14:07 | 41.84779 | -6.78604 | 30035 ft | 510 kts | 113° |
| 2026-04-15 14:07 | 41.83573 | -6.74137 | 30362 ft | 510 kts | 113° |
| 2026-04-15 14:08 | 41.82362 | -6.69670 | 30640 ft | 510 kts | 114° |
| 2026-04-15 14:08 | 41.81146 | -6.65209 | 30917 ft | 510 kts | 114° |
| 2026-04-15 14:08 | 41.79930 | -6.60750 | 31202 ft | 510 kts | 114° |
| 2026-04-15 14:08 | 41.78711 | -6.56280 | 31483 ft | 510 kts | 114° |
| 2026-04-15 14:09 | 41.77489 | -6.51812 | 31764 ft | 511 kts | 114° |
| 2026-04-15 14:09 | 41.76265 | -6.47347 | 32054 ft | 511 kts | 114° |
| 2026-04-15 14:09 | 41.75040 | -6.42878 | 32348 ft | 511 kts | 114° |
| 2026-04-15 14:09 | 41.73810 | -6.38413 | 32632 ft | 512 kts | 115° |
| 2026-04-15 14:10 | 41.72577 | -6.33942 | 32914 ft | 512 kts | 115° |
| 2026-04-15 14:10 | 41.71341 | -6.29470 | 33168 ft | 513 kts | 115° |
| 2026-04-15 14:10 | 41.70117 | -6.25047 | 33229 ft | 514 kts | 115° |
| 2026-04-15 14:11 | 41.67635 | -6.16084 | 33230 ft | 514 kts | 115° |
| 2026-04-15 14:11 | 41.65143 | -6.07124 | 33231 ft | 514 kts | 115° |
| 2026-04-15 14:12 | 41.62649 | -5.98178 | 33234 ft | 513 kts | 115° |
| 2026-04-15 14:12 | 41.60148 | -5.89250 | 33238 ft | 513 kts | 115° |
| 2026-04-15 14:13 | 41.57641 | -5.80333 | 33235 ft | 513 kts | 115° |
| 2026-04-15 14:13 | 41.55128 | -5.71425 | 33239 ft | 512 kts | 116° |
| 2026-04-15 14:14 | 41.51743 | -5.63230 | 33241 ft | 499 kts | 133° |
| 2026-04-15 14:14 | 41.47031 | -5.56642 | 33237 ft | 488 kts | 144° |
| 2026-04-15 14:15 | 41.42025 | -5.50525 | 33233 ft | 488 kts | 144° |
| 2026-04-15 14:15 | 41.37021 | -5.44406 | 33231 ft | 488 kts | 144° |
| 2026-04-15 14:16 | 41.32017 | -5.38294 | 33228 ft | 489 kts | 144° |
| 2026-04-15 14:16 | 41.26995 | -5.32198 | 33231 ft | 489 kts | 144° |
| 2026-04-15 14:17 | 41.21964 | -5.26119 | 33229 ft | 489 kts | 144° |
| 2026-04-15 14:17 | 41.16933 | -5.20041 | 33233 ft | 489 kts | 144° |
| 2026-04-15 14:18 | 41.12211 | -5.14338 | 33229 ft | 489 kts | 143° |
| 2026-04-15 14:18 | 41.07175 | -5.08265 | 33224 ft | 490 kts | 143° |
| 2026-04-15 14:19 | 41.02129 | -5.02198 | 33223 ft | 490 kts | 143° |
| 2026-04-15 14:19 | 40.97071 | -4.96146 | 33223 ft | 490 kts | 143° |
| 2026-04-15 14:20 | 40.92015 | -4.90098 | 33231 ft | 490 kts | 143° |
| 2026-04-15 14:20 | 40.86972 | -4.84054 | 33234 ft | 483 kts | 143° |
| 2026-04-15 14:20 | 40.84509 | -4.81102 | 32866 ft | 474 kts | 143° |
| 2026-04-15 14:21 | 40.82074 | -4.78193 | 31938 ft | 474 kts | 143° |
| 2026-04-15 14:21 | 40.79571 | -4.75230 | 30394 ft | 492 kts | 143° |
| 2026-04-15 14:21 | 40.77002 | -4.72201 | 29019 ft | 498 kts | 143° |
| 2026-04-15 14:21 | 40.74420 | -4.69151 | 28008 ft | 496 kts | 142° |
| 2026-04-15 14:22 | 40.71905 | -4.66172 | 27245 ft | 490 kts | 142° |
| 2026-04-15 14:22 | 40.69390 | -4.63188 | 26490 ft | 484 kts | 141° |
| 2026-04-15 14:22 | 40.66905 | -4.60241 | 25763 ft | 478 kts | 141° |
| 2026-04-15 14:22 | 40.64444 | -4.57331 | 25046 ft | 474 kts | 141° |
| 2026-04-15 14:23 | 40.62037 | -4.54370 | 24349 ft | 474 kts | 136° |
| 2026-04-15 14:23 | 40.59801 | -4.51152 | 23664 ft | 481 kts | 134° |
| 2026-04-15 14:23 | 40.57545 | -4.47896 | 22459 ft | 483 kts | 134° |
| 2026-04-15 14:23 | 40.55274 | -4.44631 | 21422 ft | 483 kts | 134° |
| 2026-04-15 14:24 | 40.53017 | -4.41391 | 20567 ft | 478 kts | 134° |
| 2026-04-15 14:24 | 40.50781 | -4.38190 | 19772 ft | 473 kts | 133° |
| 2026-04-15 14:24 | 40.48567 | -4.35025 | 19029 ft | 468 kts | 133° |
| 2026-04-15 14:24 | 40.46379 | -4.31898 | 18293 ft | 462 kts | 133° |
| 2026-04-15 14:25 | 40.44215 | -4.28805 | 17508 ft | 457 kts | 133° |
| 2026-04-15 14:25 | 40.42078 | -4.25751 | 16790 ft | 452 kts | 133° |
| 2026-04-15 14:25 | 40.39962 | -4.22730 | 16084 ft | 447 kts | 133° |
| 2026-04-15 14:25 | 40.37866 | -4.19740 | 15414 ft | 442 kts | 132° |
| 2026-04-15 14:26 | 40.35858 | -4.16735 | 14641 ft | 435 kts | 127° |
| 2026-04-15 14:26 | 40.34244 | -4.13410 | 13738 ft | 428 kts | 116° |
| 2026-04-15 14:26 | 40.33100 | -4.09857 | 12766 ft | 420 kts | 107° |
| 2026-04-15 14:26 | 40.32205 | -4.06252 | 11759 ft | 413 kts | 107° |
| 2026-04-15 14:27 | 40.31319 | -4.02706 | 11036 ft | 401 kts | 107° |
| 2026-04-15 14:27 | 40.30473 | -3.99349 | 10816 ft | 377 kts | 107° |
| 2026-04-15 14:27 | 40.29664 | -3.96150 | 10470 ft | 366 kts | 107° |
| 2026-04-15 14:27 | 40.28869 | -3.93000 | 10081 ft | 363 kts | 107° |
| 2026-04-15 14:28 | 40.28083 | -3.89878 | 9690 ft | 359 kts | 107° |
| 2026-04-15 14:28 | 40.27565 | -3.87824 | 9432 ft | 358 kts | 107° |
| 2026-04-15 14:28 | 40.26527 | -3.83705 | 8919 ft | 355 kts | 107° |
| 2026-04-15 14:28 | 40.26265 | -3.82669 | 8789 ft | 354 kts | 107° |